createdAt,value
2024-04-05T00:00:03.361Z,51.179169
2024-04-05T00:01:03.382Z,51.179165
2024-04-05T00:02:03.341Z,51.179150
2024-04-05T00:03:03.322Z,51.179184
2024-04-05T00:04:03.319Z,51.179234
2024-04-05T00:05:03.321Z,51.179218
2024-04-05T00:06:03.347Z,51.179214
2024-04-05T00:07:03.289Z,51.179207
2024-04-05T00:08:03.298Z,51.179218
2024-04-05T00:09:03.287Z,51.179226
2024-04-05T00:10:03.261Z,51.179207
2024-04-05T00:11:03.243Z,51.179203
2024-04-05T00:12:03.238Z,51.179230
2024-04-05T00:13:03.225Z,51.179207
2024-04-05T00:14:03.223Z,51.179173
2024-04-05T00:15:03.214Z,51.179180
2024-04-05T00:16:03.293Z,51.179222
2024-04-05T00:17:03.176Z,51.179188
2024-04-05T00:18:03.193Z,51.179192
2024-04-05T00:19:03.167Z,51.179207
2024-04-05T00:20:03.163Z,51.179199
2024-04-05T00:21:03.162Z,51.179157
2024-04-05T00:22:03.141Z,51.179161
2024-04-05T00:23:03.136Z,51.179195
2024-04-05T00:24:03.117Z,51.179211
2024-04-05T00:25:03.107Z,51.179161
2024-04-05T00:26:03.099Z,51.179142
2024-04-05T00:27:03.115Z,51.179195
2024-04-05T00:28:03.069Z,51.179222
2024-04-05T00:29:04.063Z,51.179180
2024-04-05T00:30:03.076Z,51.179165
2024-04-05T00:31:03.041Z,51.179127
2024-04-05T00:32:03.069Z,51.179131
2024-04-05T00:33:03.015Z,51.179161
2024-04-05T00:34:03.027Z,51.179195
2024-04-05T00:35:03.028Z,51.179153
2024-04-05T00:36:03.001Z,51.179153
2024-04-05T00:37:03.014Z,51.179165
2024-04-05T00:38:02.966Z,51.179188
2024-04-05T00:39:02.993Z,51.179184
2024-04-05T00:40:02.953Z,51.179165
2024-04-05T00:41:02.960Z,51.179188
2024-04-05T00:42:02.937Z,51.179195
2024-04-05T00:43:02.928Z,51.179173
2024-04-05T00:44:02.925Z,51.179173
2024-04-05T00:45:02.883Z,51.179180
2024-04-05T00:46:02.894Z,51.179176
2024-04-05T00:47:02.913Z,51.179192
2024-04-05T00:48:02.853Z,51.179188
2024-04-05T00:49:02.860Z,51.179230
2024-04-05T00:50:02.832Z,51.179192
2024-04-05T00:51:02.832Z,51.179218
2024-04-05T00:52:03.877Z,51.179222
2024-04-05T00:53:02.814Z,51.179211
2024-04-05T00:54:02.813Z,51.179207
2024-04-05T00:55:02.771Z,51.179234
2024-04-05T00:56:02.775Z,51.179222
2024-04-05T00:57:02.759Z,51.179234
2024-04-05T00:58:02.771Z,51.179214
2024-04-05T00:59:02.758Z,51.179192
2024-04-05T01:00:02.747Z,51.179234
2024-04-05T01:01:02.738Z,51.179237
2024-04-05T01:02:02.729Z,51.179226
2024-04-05T01:03:02.698Z,51.179249
2024-04-05T01:04:03.704Z,51.179222
2024-04-05T01:05:02.704Z,51.179199
2024-04-05T01:06:02.688Z,51.179173
2024-04-05T01:07:02.647Z,51.179226
2024-04-05T01:08:02.638Z,51.179241
2024-04-05T01:09:02.651Z,51.179234
2024-04-05T01:10:02.631Z,51.179249
2024-04-05T01:11:02.613Z,51.179256
2024-04-05T01:12:02.604Z,51.179230
2024-04-05T01:13:02.599Z,51.179237
2024-04-05T01:14:02.597Z,51.179230
2024-04-05T01:15:02.609Z,51.179226
2024-04-05T01:16:02.576Z,51.179237
2024-04-05T01:17:02.559Z,51.179241
2024-04-05T01:18:02.557Z,51.179260
2024-04-05T01:19:02.545Z,51.179272
2024-04-05T01:20:02.556Z,51.179268
2024-04-05T01:21:02.511Z,51.179268
2024-04-05T01:22:02.519Z,51.179272
2024-04-05T01:23:02.505Z,51.179253
2024-04-05T01:24:02.502Z,51.179226
2024-04-05T01:25:02.466Z,51.179256
2024-04-05T01:26:02.451Z,51.179249
2024-04-05T01:27:02.453Z,51.179264
2024-04-05T01:28:02.429Z,51.179245
2024-04-05T01:29:02.442Z,51.179218
2024-04-05T01:30:02.441Z,51.179256
2024-04-05T01:31:02.415Z,51.179298
2024-04-05T01:32:02.395Z,51.179276
2024-04-05T01:33:02.411Z,51.179222
2024-04-05T01:34:02.382Z,51.179230
2024-04-05T01:35:02.365Z,51.179272
2024-04-05T01:36:02.357Z,51.179283
2024-04-05T01:37:02.343Z,51.179234
2024-04-05T01:38:02.366Z,51.179249
2024-04-05T01:39:02.362Z,51.179260
2024-04-05T01:40:02.328Z,51.179249
2024-04-05T01:41:02.288Z,51.179256
2024-04-05T01:42:02.301Z,51.179279
2024-04-05T01:43:02.314Z,51.179272
2024-04-05T01:44:02.300Z,51.179283
2024-04-05T01:45:02.326Z,51.179272
2024-04-05T01:46:02.246Z,51.179295
2024-04-05T01:47:02.255Z,51.179268
2024-04-05T01:48:02.318Z,51.179264
2024-04-05T01:49:02.207Z,51.179230
2024-04-05T01:50:02.209Z,51.179249
2024-04-05T01:51:02.212Z,51.179230
2024-04-05T01:52:02.188Z,51.179230
2024-04-05T01:53:02.204Z,51.179276
2024-04-05T01:54:02.183Z,51.179310
2024-04-05T01:55:02.192Z,51.179279
2024-04-05T01:56:02.137Z,51.179306
2024-04-05T01:57:03.145Z,51.179276
2024-04-05T01:58:02.124Z,51.179276
2024-04-05T01:59:02.138Z,51.179264
2024-04-05T02:00:02.138Z,51.179245
2024-04-05T02:01:02.132Z,51.179260
2024-04-05T02:02:02.114Z,51.179287
2024-04-05T02:03:02.093Z,51.179260
2024-04-05T02:04:03.050Z,51.179253
2024-04-05T02:05:02.072Z,51.179245
2024-04-05T02:06:02.046Z,51.179253
2024-04-05T02:07:02.061Z,51.179260
2024-04-05T02:08:02.037Z,51.179218
2024-04-05T02:09:02.022Z,51.179241
2024-04-05T02:10:02.015Z,51.179249
2024-04-05T02:11:01.982Z,51.179226
2024-04-05T02:12:01.985Z,51.179199
2024-04-05T02:13:01.980Z,51.179283
2024-04-05T02:14:01.953Z,51.179268
2024-04-05T02:15:01.971Z,51.179234
2024-04-05T02:16:01.975Z,51.179234
2024-04-05T02:17:01.929Z,51.179249
2024-04-05T02:18:01.912Z,51.179279
2024-04-05T02:19:01.894Z,51.179268
2024-04-05T02:20:01.903Z,51.179256
2024-04-05T02:21:01.907Z,51.179256
2024-04-05T02:22:01.895Z,51.179245
2024-04-05T02:23:01.841Z,51.179199
2024-04-05T02:24:01.853Z,51.179241
2024-04-05T02:25:01.822Z,51.179264
2024-04-05T02:26:01.837Z,51.179253
2024-04-05T02:27:01.823Z,51.179256
2024-04-05T02:28:01.803Z,51.179256
2024-04-05T02:29:01.799Z,51.179222
2024-04-05T02:30:01.782Z,51.179211
2024-04-05T02:31:01.773Z,51.179234
2024-04-05T02:32:01.767Z,51.179230
2024-04-05T02:33:01.762Z,51.179268
2024-04-05T02:34:01.731Z,51.179218
2024-04-05T02:35:01.727Z,51.179195
2024-04-05T02:36:01.739Z,51.179207
2024-04-05T02:37:01.734Z,51.179199
2024-04-05T02:38:01.699Z,51.179218
2024-04-05T02:39:01.695Z,51.179234
2024-04-05T02:40:01.693Z,51.179234
2024-04-05T02:41:01.672Z,51.179241
2024-04-05T02:42:01.666Z,51.179222
2024-04-05T02:43:01.667Z,51.179230
2024-04-05T02:44:01.667Z,51.179222
2024-04-05T02:45:01.617Z,51.179218
2024-04-05T02:46:01.625Z,51.179207
2024-04-05T02:47:01.601Z,51.179230
2024-04-05T02:48:01.639Z,51.179234
2024-04-05T02:49:01.602Z,51.179195
2024-04-05T02:50:01.576Z,51.179207
2024-04-05T02:51:01.557Z,51.179226
2024-04-05T02:52:01.542Z,51.179230
2024-04-05T02:53:01.554Z,51.179234
2024-04-05T02:54:01.522Z,51.179234
2024-04-05T02:55:01.536Z,51.179211
2024-04-05T02:56:01.563Z,51.179207
2024-04-05T02:57:01.483Z,51.179199
2024-04-05T02:58:01.509Z,51.179222
2024-04-05T02:59:01.496Z,51.179237
2024-04-05T03:00:01.493Z,51.179234
2024-04-05T03:01:01.454Z,51.179241
2024-04-05T03:02:01.469Z,51.179218
2024-04-05T03:03:01.439Z,51.179207
2024-04-05T03:04:01.449Z,51.179222
2024-04-05T03:05:01.423Z,51.179234
2024-04-05T03:06:01.403Z,51.179249
2024-04-05T03:07:02.426Z,51.179260
2024-04-05T03:08:01.398Z,51.179249
2024-04-05T03:09:01.382Z,51.179249
2024-04-05T03:10:01.350Z,51.179245
2024-04-05T03:11:01.393Z,51.179207
2024-04-05T03:12:01.356Z,51.179226
2024-04-05T03:13:01.342Z,51.179249
2024-04-05T03:14:01.344Z,51.179241
2024-04-05T03:15:01.306Z,51.179249
2024-04-05T03:16:01.320Z,51.179249
2024-04-05T03:17:01.318Z,51.179222
2024-04-05T03:18:01.267Z,51.179230
2024-04-05T03:19:01.263Z,51.179253
2024-04-05T03:20:01.259Z,51.179226
2024-04-05T03:21:01.248Z,51.179218
2024-04-05T03:22:01.276Z,51.179237
2024-04-05T03:23:01.250Z,51.179237
2024-04-05T03:24:01.212Z,51.179184
2024-04-05T03:25:01.199Z,51.179199
2024-04-05T03:26:01.183Z,51.179226
2024-04-05T03:27:01.178Z,51.179230
2024-04-05T03:28:01.176Z,51.179264
2024-04-05T03:29:01.199Z,51.179253
2024-04-05T03:30:01.142Z,51.179237
2024-04-05T03:31:01.150Z,51.179211
2024-04-05T03:32:01.145Z,51.179195
2024-04-05T03:33:01.126Z,51.179203
2024-04-05T03:34:01.119Z,51.179222
2024-04-05T03:35:01.132Z,51.179218
2024-04-05T03:36:01.118Z,51.179230
2024-04-05T03:37:01.085Z,51.179249
2024-04-05T03:38:01.095Z,51.179222
2024-04-05T03:39:01.070Z,51.179222
2024-04-05T03:40:01.078Z,51.179203
2024-04-05T03:41:01.039Z,51.179195
2024-04-05T03:42:01.069Z,51.179203
2024-04-05T03:43:01.080Z,51.179153
2024-04-05T03:44:01.041Z,51.179234
2024-04-05T03:45:01.008Z,51.179241
2024-04-05T03:46:01.022Z,51.179222
2024-04-05T03:47:00.990Z,51.179176
2024-04-05T03:48:00.982Z,51.179203
2024-04-05T03:49:00.970Z,51.179218
2024-04-05T03:50:00.959Z,51.179241
2024-04-05T03:51:02.305Z,51.179211
2024-04-05T03:52:01.912Z,51.179199
2024-04-05T03:53:00.940Z,51.179218
2024-04-05T03:54:00.970Z,51.179230
2024-04-05T03:55:00.907Z,51.179245
2024-04-05T03:56:00.893Z,51.179264
2024-04-05T03:57:00.881Z,51.179272
2024-04-05T03:58:00.887Z,51.179234
2024-04-05T03:59:00.876Z,51.179264
2024-04-05T04:00:00.864Z,51.179268
2024-04-05T04:01:00.813Z,51.179268
2024-04-05T04:02:00.830Z,51.179256
2024-04-05T04:03:00.838Z,51.179241
2024-04-05T04:04:00.815Z,51.179249
2024-04-05T04:05:00.790Z,51.179214
2024-04-05T04:06:00.800Z,51.179211
2024-04-05T04:07:00.786Z,51.179245
2024-04-05T04:08:00.779Z,51.179256
2024-04-05T04:09:00.740Z,51.179230
2024-04-05T04:10:00.735Z,51.179256
2024-04-05T04:11:00.753Z,51.179237
2024-04-05T04:12:00.740Z,51.179249
2024-04-05T04:13:00.686Z,51.179214
2024-04-05T04:14:00.683Z,51.179234
2024-04-05T04:15:00.696Z,51.179264
2024-04-05T04:16:00.674Z,51.179222
2024-04-05T04:17:00.669Z,51.179234
2024-04-05T04:18:00.652Z,51.179211
2024-04-05T04:19:00.638Z,51.179237
2024-04-05T04:20:00.681Z,51.179207
2024-04-05T04:21:00.632Z,51.179230
2024-04-05T04:22:00.655Z,51.179218
2024-04-05T04:23:00.603Z,51.179234
2024-04-05T04:24:00.570Z,51.179176
2024-04-05T04:25:00.558Z,51.179203
2024-04-05T04:26:00.568Z,51.179253
2024-04-05T04:27:00.576Z,51.179264
2024-04-05T04:28:00.606Z,51.179222
2024-04-05T04:29:00.541Z,51.179176
2024-04-05T04:30:00.519Z,51.179176
2024-04-05T04:31:00.523Z,51.179161
2024-04-05T04:32:00.508Z,51.179169
2024-04-05T04:33:00.467Z,51.179142
2024-04-05T04:34:00.478Z,51.179165
2024-04-05T04:35:00.478Z,51.179203
2024-04-05T04:36:00.481Z,51.179234
2024-04-05T04:37:00.429Z,51.179173
2024-04-05T04:38:00.425Z,51.179199
2024-04-05T04:39:00.430Z,51.179203
2024-04-05T04:40:00.395Z,51.179237
2024-04-05T04:41:00.423Z,51.179260
2024-04-05T04:42:00.393Z,51.179241
2024-04-05T04:43:00.394Z,51.179199
2024-04-05T04:44:00.372Z,51.179272
2024-04-05T04:45:00.377Z,51.179253
2024-04-05T04:46:00.366Z,51.179241
2024-04-05T04:47:00.342Z,51.179237
2024-04-05T04:48:00.334Z,51.179234
2024-04-05T04:49:00.337Z,51.179207
2024-04-05T04:50:01.806Z,51.179180
2024-04-05T04:51:01.299Z,51.179176
2024-04-05T04:52:00.290Z,51.179237
2024-04-05T04:53:00.262Z,51.179203
2024-04-05T04:54:00.249Z,51.179188
2024-04-05T04:55:00.246Z,51.179199
2024-04-05T04:56:00.259Z,51.179230
2024-04-05T04:57:00.251Z,51.179253
2024-04-05T04:58:00.193Z,51.179218
2024-04-05T04:59:00.216Z,51.179192
2024-04-05T05:00:00.200Z,51.179211
2024-04-05T05:01:00.172Z,51.179222
2024-04-05T05:02:00.218Z,51.179188
2024-04-05T05:03:00.187Z,51.179161
2024-04-05T05:04:00.166Z,51.179188
2024-04-05T05:05:00.158Z,51.179207
2024-04-05T05:06:00.125Z,51.179211
2024-04-05T05:07:00.139Z,51.179234
2024-04-05T05:08:00.136Z,51.179256
2024-04-05T05:09:00.101Z,51.179268
2024-04-05T05:10:00.089Z,51.179237
2024-04-05T05:11:00.082Z,51.179207
2024-04-05T05:12:00.126Z,51.179203
2024-04-05T05:13:00.076Z,51.179218
2024-04-05T05:14:00.083Z,51.179230
2024-04-05T05:15:00.037Z,51.179249
2024-04-05T05:16:00.061Z,51.179260
2024-04-05T05:17:00.031Z,51.179230
2024-04-05T05:18:00.034Z,51.179249
2024-04-05T05:18:59.997Z,51.179245
2024-04-05T05:19:59.987Z,51.179234
2024-04-05T05:20:59.966Z,51.179192
2024-04-05T05:21:59.987Z,51.179192
2024-04-05T05:22:59.940Z,51.179218
2024-04-05T05:23:59.921Z,51.179218
2024-04-05T05:24:59.961Z,51.179218
2024-04-05T05:25:59.961Z,51.179188
2024-04-05T05:26:59.887Z,51.179161
2024-04-05T05:27:59.899Z,51.179169
2024-04-05T05:28:59.879Z,51.179157
2024-04-05T05:29:59.912Z,51.179146
2024-04-05T05:30:59.858Z,51.179165
2024-04-05T05:31:59.899Z,51.179203
2024-04-05T05:32:59.887Z,51.179222
2024-04-05T05:33:59.837Z,51.179199
2024-04-05T05:34:59.820Z,51.179184
2024-04-05T05:35:59.787Z,51.179195
2024-04-05T05:36:59.804Z,51.179195
2024-04-05T05:37:59.775Z,51.179207
2024-04-05T05:38:59.792Z,51.179192
2024-04-05T05:39:59.762Z,51.179176
2024-04-05T05:40:59.775Z,51.179184
2024-04-05T05:41:59.713Z,51.179169
2024-04-05T05:43:31.798Z,51.179188
2024-04-05T05:43:59.688Z,51.179211
2024-04-05T05:44:59.710Z,51.179237
2024-04-05T05:45:59.684Z,51.179237
2024-04-05T05:46:59.674Z,51.179230
2024-04-05T05:47:59.661Z,51.179241
2024-04-05T05:48:59.665Z,51.179226
2024-04-05T05:49:59.634Z,51.179218
2024-04-05T05:50:59.632Z,51.179237
2024-04-05T05:51:59.634Z,51.179234
2024-04-05T05:52:59.601Z,51.179237
2024-04-05T05:53:59.604Z,51.179222
2024-04-05T05:54:59.574Z,51.179234
2024-04-05T05:56:02.397Z,51.179237
2024-04-05T05:57:00.570Z,51.179226
2024-04-05T05:57:59.550Z,51.179241
2024-04-05T05:58:59.558Z,51.179214
2024-04-05T05:59:59.576Z,51.179214
2024-04-05T06:00:59.508Z,51.179203
2024-04-05T06:01:59.490Z,51.179222
2024-04-05T06:02:59.499Z,51.179245
2024-04-05T06:03:59.509Z,51.179222
2024-04-05T06:04:59.454Z,51.179176
2024-04-05T06:05:59.499Z,51.179195
2024-04-05T06:06:59.462Z,51.179222
2024-04-05T06:07:59.444Z,51.179207
2024-04-05T06:08:59.512Z,51.179214
2024-04-05T06:09:59.439Z,51.179234
2024-04-05T06:10:59.415Z,51.179253
2024-04-05T06:12:01.466Z,51.179241
2024-04-05T06:13:00.399Z,51.179237
2024-04-05T06:13:59.395Z,51.179272
2024-04-05T06:14:59.404Z,51.179268
2024-04-05T06:15:59.365Z,51.179287
2024-04-05T06:16:59.348Z,51.179256
2024-04-05T06:17:59.347Z,51.179249
2024-04-05T06:18:59.320Z,51.179237
2024-04-05T06:19:59.356Z,51.179214
2024-04-05T06:20:59.307Z,51.179237
2024-04-05T06:21:59.323Z,51.179283
2024-04-05T06:22:59.284Z,51.179310
2024-04-05T06:23:59.264Z,51.179295
2024-04-05T06:24:59.280Z,51.179272
2024-04-05T06:25:59.262Z,51.179276
2024-04-05T06:26:59.242Z,51.179249
2024-04-05T06:27:59.232Z,51.179218
2024-04-05T06:28:59.215Z,51.179199
2024-04-05T06:30:00.251Z,51.179207
2024-04-05T06:30:59.232Z,51.179173
2024-04-05T06:31:59.184Z,51.179249
2024-04-05T06:32:59.168Z,51.179276
2024-04-05T06:33:59.207Z,51.179302
2024-04-05T06:35:00.690Z,51.179298
2024-04-05T06:35:59.145Z,51.179310
2024-04-05T06:36:59.160Z,51.179249
2024-04-05T06:37:59.106Z,51.179218
2024-04-05T06:38:59.110Z,51.179192
2024-04-05T06:39:59.144Z,51.179245
2024-04-05T06:40:59.081Z,51.179256
2024-04-05T06:41:59.070Z,51.179253
2024-04-05T06:42:59.079Z,51.179195
2024-04-05T06:43:59.058Z,51.179192
2024-04-05T06:44:59.046Z,51.179245
2024-04-05T06:45:59.063Z,51.179256
2024-04-05T06:46:59.046Z,51.179256
2024-04-05T06:47:58.998Z,51.179237
2024-04-05T06:48:58.987Z,51.179245
2024-04-05T06:49:59.022Z,51.179226
2024-04-05T06:50:58.988Z,51.179211
2024-04-05T06:51:58.958Z,51.179203
2024-04-05T06:52:59.024Z,51.179234
2024-04-05T06:53:58.926Z,51.179268
2024-04-05T06:54:58.935Z,51.179237
2024-04-05T06:55:58.947Z,51.179253
2024-04-05T06:56:58.901Z,51.179245
2024-04-05T06:57:58.884Z,51.179230
2024-04-05T06:58:58.881Z,51.179237
2024-04-05T06:59:58.879Z,51.179249
2024-04-05T07:00:58.863Z,51.179256
2024-04-05T07:01:58.830Z,51.179230
2024-04-05T07:02:58.842Z,51.179234
2024-04-05T07:03:58.850Z,51.179234
2024-04-05T07:04:58.817Z,51.179214
2024-04-05T07:05:58.810Z,51.179214
2024-04-05T07:06:58.791Z,51.179218
2024-04-05T07:07:58.780Z,51.179203
2024-04-05T07:08:58.757Z,51.179203
2024-04-05T07:09:58.755Z,51.179203
2024-04-05T07:10:58.772Z,51.179241
2024-04-05T07:11:58.741Z,51.179222
2024-04-05T07:12:58.709Z,51.179226
2024-04-05T07:13:58.766Z,51.179245
2024-04-05T07:14:58.743Z,51.179272
2024-04-05T07:15:58.684Z,51.179268
2024-04-05T07:16:58.673Z,51.179298
2024-04-05T07:17:58.687Z,51.179310
2024-04-05T07:18:58.630Z,51.179321
2024-04-05T07:19:59.640Z,51.179295
2024-04-05T07:20:58.643Z,51.179276
2024-04-05T07:21:58.614Z,51.179237
2024-04-05T07:22:58.674Z,51.179203
2024-04-05T07:23:58.663Z,51.179218
2024-04-05T07:24:58.570Z,51.179264
2024-04-05T07:25:58.567Z,51.179203
2024-04-05T07:26:58.583Z,51.179230
2024-04-05T07:27:58.538Z,51.179241
2024-04-05T07:28:58.527Z,51.179245
2024-04-05T07:29:58.525Z,51.179264
2024-04-05T07:30:58.527Z,51.179241
2024-04-05T07:31:58.494Z,51.179184
2024-04-05T07:32:58.484Z,51.179207
2024-04-05T07:33:58.530Z,51.179226
2024-04-05T07:34:58.456Z,51.179218
2024-04-05T07:35:58.434Z,51.179245
2024-04-05T07:36:58.464Z,51.179279
2024-04-05T07:37:58.424Z,51.179256
2024-04-05T07:38:58.418Z,51.179234
2024-04-05T07:39:58.429Z,51.179211
2024-04-05T07:40:58.394Z,51.179237
2024-04-05T07:41:58.392Z,51.179249
2024-04-05T07:42:58.372Z,51.179218
2024-04-05T07:43:58.365Z,51.179234
2024-04-05T07:44:58.341Z,51.179234
2024-04-05T07:45:58.343Z,51.179249
2024-04-05T07:46:58.342Z,51.179272
2024-04-05T07:47:58.342Z,51.179230
2024-04-05T07:48:58.284Z,51.179237
2024-04-05T07:49:58.296Z,51.179253
2024-04-05T07:50:58.285Z,51.179253
2024-04-05T07:51:58.250Z,51.179234
2024-04-05T07:52:58.270Z,51.179230
2024-04-05T07:53:58.248Z,51.179230
2024-04-05T07:54:58.227Z,51.179253
2024-04-05T07:55:58.262Z,51.179283
2024-04-05T07:57:07.444Z,51.179241
2024-04-05T07:58:00.201Z,51.179230
2024-04-05T07:58:58.198Z,51.179211
2024-04-05T07:59:58.210Z,51.179218
2024-04-05T08:00:58.161Z,51.179226
2024-04-05T08:01:58.154Z,51.179211
2024-04-05T08:02:58.136Z,51.179211
2024-04-05T08:03:58.173Z,51.179237
2024-04-05T08:04:58.106Z,51.179260
2024-04-05T08:05:58.102Z,51.179245
2024-04-05T08:06:58.109Z,51.179237
2024-04-05T08:07:58.096Z,51.179321
2024-04-05T08:08:58.073Z,51.179298
2024-04-05T08:09:58.072Z,51.179268
2024-04-05T08:10:58.086Z,51.179260
2024-04-05T08:11:58.466Z,51.179279
2024-04-05T08:12:58.042Z,51.179268
2024-04-05T08:13:57.996Z,51.179283
2024-04-05T08:14:58.000Z,51.179314
2024-04-05T08:15:58.007Z,51.179245
2024-04-05T08:16:57.982Z,51.179176
2024-04-05T08:17:57.982Z,51.179195
2024-04-05T08:18:57.950Z,51.179199
2024-04-05T08:19:57.952Z,51.179218
2024-04-05T08:20:57.947Z,51.179249
2024-04-05T08:21:57.922Z,51.179245
2024-04-05T08:22:57.938Z,51.179207
2024-04-05T08:23:57.919Z,51.179199
2024-04-05T08:24:57.884Z,51.179195
2024-04-05T08:25:57.898Z,51.179222
2024-04-05T08:26:57.942Z,51.179237
2024-04-05T08:27:57.838Z,51.179256
2024-04-05T08:28:57.876Z,51.179188
2024-04-05T08:29:57.849Z,51.179218
2024-04-05T08:30:57.823Z,51.179230
2024-04-05T08:31:57.827Z,51.179192
2024-04-05T08:32:57.823Z,51.179226
2024-04-05T08:33:57.775Z,51.179253
2024-04-05T08:34:57.792Z,51.179245
2024-04-05T08:35:57.805Z,51.179234
2024-04-05T08:36:57.773Z,51.179226
2024-04-05T08:37:57.736Z,51.179237
2024-04-05T08:38:57.765Z,51.179234
2024-04-05T08:39:57.760Z,51.179222
2024-04-05T08:40:57.714Z,51.179214
2024-04-05T08:41:57.708Z,51.179214
2024-04-05T08:42:57.680Z,51.179214
2024-04-05T08:43:57.691Z,51.179222
2024-04-05T08:44:57.689Z,51.179256
2024-04-05T08:45:57.662Z,51.179264
2024-04-05T08:46:57.662Z,51.179264
2024-04-05T08:47:57.630Z,51.179211
2024-04-05T08:48:57.619Z,51.179230
2024-04-05T08:49:57.695Z,51.179279
2024-04-05T08:50:57.625Z,51.179253
2024-04-05T08:51:57.571Z,51.179214
2024-04-05T08:52:57.658Z,51.179211
2024-04-05T08:53:57.564Z,51.179218
2024-04-05T08:54:58.583Z,51.179241
2024-04-05T08:55:57.630Z,51.179234
2024-04-05T08:56:57.530Z,51.179192
2024-04-05T08:57:57.532Z,51.179207
2024-04-05T08:58:57.535Z,51.179249
2024-04-05T08:59:57.530Z,51.179176
2024-04-05T09:00:57.479Z,51.179199
2024-04-05T09:01:57.544Z,51.179222
2024-04-05T09:02:57.513Z,51.179203
2024-04-05T09:03:57.531Z,51.179188
2024-04-05T09:04:57.528Z,51.179203
2024-04-05T09:05:57.534Z,51.179234
2024-04-05T09:06:57.514Z,51.179287
2024-04-05T09:07:57.529Z,51.179222
2024-04-05T09:08:57.461Z,51.179199
2024-04-05T09:09:59.335Z,51.179218
2024-04-05T09:10:58.529Z,51.179222
2024-04-05T09:11:57.416Z,51.179226
2024-04-05T09:12:57.389Z,51.179214
2024-04-05T09:13:57.377Z,51.179230
2024-04-05T09:14:57.376Z,51.179230
2024-04-05T09:15:57.342Z,51.179256
2024-04-05T09:16:57.406Z,51.179230
2024-04-05T09:17:57.313Z,51.179237
2024-04-05T09:18:57.301Z,51.179253
2024-04-05T09:19:57.324Z,51.179260
2024-04-05T09:20:57.289Z,51.179298
2024-04-05T09:21:57.275Z,51.179249
2024-04-05T09:22:57.311Z,51.179237
2024-04-05T09:23:57.270Z,51.179207
2024-04-05T09:24:57.221Z,51.179222
2024-04-05T09:25:57.259Z,51.179218
2024-04-05T09:26:57.234Z,51.179211
2024-04-05T09:27:57.201Z,51.179260
2024-04-05T09:28:57.202Z,51.179256
2024-04-05T09:29:57.237Z,51.179268
2024-04-05T09:30:57.212Z,51.179241
2024-04-05T09:31:57.184Z,51.179222
2024-04-05T09:32:57.163Z,51.179222
2024-04-05T09:33:57.124Z,51.179230
2024-04-05T09:34:57.205Z,51.179199
2024-04-05T09:35:57.130Z,51.179237
2024-04-05T09:36:57.096Z,51.179237
2024-04-05T09:37:57.117Z,51.179184
2024-04-05T09:38:57.104Z,51.179146
2024-04-05T09:39:57.089Z,51.179165
2024-04-05T09:40:57.104Z,51.179184
2024-04-05T09:41:57.050Z,51.179218
2024-04-05T09:42:57.044Z,51.179237
2024-04-05T09:44:07.337Z,51.179264
2024-04-05T09:44:59.043Z,51.179249
2024-04-05T09:45:57.005Z,51.179222
2024-04-05T09:46:57.038Z,51.179180
2024-04-05T09:47:57.008Z,51.179188
2024-04-05T09:48:56.987Z,51.179192
2024-04-05T09:49:56.994Z,51.179199
2024-04-05T09:50:56.956Z,51.179230
2024-04-05T09:51:56.974Z,51.179218
2024-04-05T09:52:56.990Z,51.179222
2024-04-05T09:53:56.933Z,51.179211
2024-04-05T09:54:56.912Z,51.179207
2024-04-05T09:55:56.923Z,51.179234
2024-04-05T09:56:56.918Z,51.179176
2024-04-05T09:57:56.886Z,51.179245
2024-04-05T09:58:56.886Z,51.179260
2024-04-05T09:59:56.914Z,51.179237
2024-04-05T10:00:56.861Z,51.179287
2024-04-05T10:01:56.871Z,51.179302
2024-04-05T10:02:56.884Z,51.179287
2024-04-05T10:03:56.854Z,51.179237
2024-04-05T10:04:56.801Z,51.179268
2024-04-05T10:05:56.799Z,51.179279
2024-04-05T10:06:56.805Z,51.179329
2024-04-05T10:07:56.794Z,51.179367
2024-04-05T10:08:56.775Z,51.179241
2024-04-05T10:09:56.785Z,51.179203
2024-04-05T10:10:56.798Z,51.179253
2024-04-05T10:11:56.803Z,51.179310
2024-04-05T10:12:56.819Z,51.179356
2024-04-05T10:13:56.731Z,51.179287
2024-04-05T10:14:56.704Z,51.179279
2024-04-05T10:15:56.697Z,51.179291
2024-04-05T10:16:56.723Z,51.179253
2024-04-05T10:17:56.675Z,51.179237
2024-04-05T10:18:56.652Z,51.179253
2024-04-05T10:19:56.699Z,51.179253
2024-04-05T10:20:56.638Z,51.179256
2024-04-05T10:21:56.644Z,51.179283
2024-04-05T10:22:56.640Z,51.179253
2024-04-05T10:23:56.608Z,51.179222
2024-04-05T10:24:56.608Z,51.179253
2024-04-05T10:25:56.598Z,51.179272
2024-04-05T10:26:56.581Z,51.179268
2024-04-05T10:27:56.614Z,51.179256
2024-04-05T10:28:56.687Z,51.179256
2024-04-05T10:29:56.537Z,51.179234
2024-04-05T10:30:56.572Z,51.179241
2024-04-05T10:31:56.613Z,51.179211
2024-04-05T10:32:56.511Z,51.179203
2024-04-05T10:33:56.506Z,51.179207
2024-04-05T10:34:56.512Z,51.179203
2024-04-05T10:35:56.527Z,51.179245
2024-04-05T10:36:56.464Z,51.179234
2024-04-05T10:38:09.487Z,51.179214
2024-04-05T10:38:58.512Z,51.179199
2024-04-05T10:39:56.427Z,51.179184
2024-04-05T10:40:56.503Z,51.179173
2024-04-05T10:41:56.430Z,51.179195
2024-04-05T10:42:56.423Z,51.179230
2024-04-05T10:43:56.479Z,51.179253
2024-04-05T10:44:56.399Z,51.179253
2024-04-05T10:45:56.391Z,51.179276
2024-04-05T10:46:56.448Z,51.179302
2024-04-05T10:47:56.366Z,51.179276
2024-04-05T10:48:56.364Z,51.179264
2024-04-05T10:49:56.381Z,51.179260
2024-04-05T10:50:56.326Z,51.179230
2024-04-05T10:51:56.310Z,51.179161
2024-04-05T10:52:56.383Z,51.179169
2024-04-05T10:53:56.844Z,51.179222
2024-04-05T10:54:57.272Z,51.179234
2024-04-05T10:55:56.292Z,51.179237
2024-04-05T10:56:56.268Z,51.179218
2024-04-05T10:57:56.259Z,51.179199
2024-04-05T10:58:56.298Z,51.179218
2024-04-05T10:59:56.252Z,51.179211
2024-04-05T11:00:56.212Z,51.179230
2024-04-05T11:01:56.233Z,51.179188
2024-04-05T11:02:56.772Z,51.179195
2024-04-05T11:03:57.174Z,51.179184
2024-04-05T11:04:56.233Z,51.179169
2024-04-05T11:05:56.195Z,51.179173
2024-04-05T11:06:56.163Z,51.179188
2024-04-05T11:07:56.185Z,51.179184
2024-04-05T11:08:56.139Z,51.179169
2024-04-05T11:09:56.126Z,51.179176
2024-04-05T11:10:56.117Z,51.179188
2024-04-05T11:11:56.103Z,51.179184
2024-04-05T11:12:56.126Z,51.179184
2024-04-05T11:13:56.068Z,51.179188
2024-04-05T11:14:56.085Z,51.179153
2024-04-05T11:15:56.083Z,51.179142
2024-04-05T11:16:58.032Z,51.179165
2024-04-05T11:17:57.027Z,51.179195
2024-04-05T11:18:56.044Z,51.179211
2024-04-05T11:19:56.073Z,51.179211
2024-04-05T11:20:56.031Z,51.179234
2024-04-05T11:21:55.973Z,51.179253
2024-04-05T11:22:56.008Z,51.179260
2024-04-05T11:23:55.993Z,51.179237